Terminal Aerodrome Forecast
Issued by NWS Hastings, NE

Home | Current Version | Previous Version | Text Only | Print | Product List | Glossary On
Versions: 1 2 3 4 5 6 7 8 9 10 11 12 13 14 15 16 17 18 19 20 21 22
000
FTUS43 KGID 202326
TAFGRI
TAF
KGRI 202326Z 2100/2124 03007KT P6SM OVC012
     FM210300 VRB03KT P6SM OVC018
     FM210700 VRB03KT 4SM BR BKN010
     FM211100 00000KT 1/2SM FG BKN003
     FM211400 VRB04KT 3SM BR BKN010
     FM211500 VRB05KT P6SM BKN025
     FM211600 17008KT P6SM SCT060=

USA.gov is the U.S. government's official web portal to all federal, state and local government web resources and services.